Terminal Aerodrome Forecast
Issued by NWS Tampa Bay Area, FL

Home | Current Version | Previous Version | Text Only | Print | Product List | Glossary On
Versions: 1 2 3 4 5 6 7 8 9 10 11 12 13 14 15 16 17 18 19 20 21 22 23 24 25
883
FTUS42 KTBW 211138
TAFTPA
TAF
KTPA 211138Z 2112/2212 17006KT P6SM SCT250
      TEMPO 2112/2113 5SM BR
     FM211500 20010KT P6SM SCT030 SCT250
     FM211900 22012G20KT P6SM SCT040 BKN250
     FM220000 18010KT P6SM BKN250=

USA.gov is the U.S. government's official web portal to all federal, state and local government web resources and services.